sensor_id;sensor_type;location;lat;lon;timestamp;pressure;altitude;pressure_sealevel;temperature;humidity
79527;BME280;68974;47.754;-3.364;2023-04-25T00:00:58;101500.22;;;9.98;68.53
79527;BME280;68974;47.754;-3.364;2023-04-25T00:03:23;101489.75;;;9.95;68.45
79527;BME280;68974;47.754;-3.364;2023-04-25T00:05:50;101490.94;;;10.04;68.03
79527;BME280;68974;47.754;-3.364;2023-04-25T00:08:17;101492.78;;;10.20;67.75
79527;BME280;68974;47.754;-3.364;2023-04-25T00:10:42;101500.50;;;10.23;67.27
79527;BME280;68974;47.754;-3.364;2023-04-25T00:13:08;101494.31;;;10.11;67.77
79527;BME280;68974;47.754;-3.364;2023-04-25T00:15:33;101486.72;;;9.91;68.10
79527;BME280;68974;47.754;-3.364;2023-04-25T00:18:00;101489.88;;;10.05;68.03
79527;BME280;68974;47.754;-3.364;2023-04-25T00:20:26;101478.00;;;9.99;68.46
79527;BME280;68974;47.754;-3.364;2023-04-25T00:22:51;101478.47;;;9.91;68.96
79527;BME280;68974;47.754;-3.364;2023-04-25T00:25:21;101486.31;;;9.83;69.14
79527;BME280;68974;47.754;-3.364;2023-04-25T00:27:46;101488.50;;;9.81;68.89
79527;BME280;68974;47.754;-3.364;2023-04-25T00:30:12;101489.59;;;9.80;69.38
79527;BME280;68974;47.754;-3.364;2023-04-25T00:32:38;101488.63;;;9.91;69.18
79527;BME280;68974;47.754;-3.364;2023-04-25T00:35:03;101486.84;;;9.80;69.41
79527;BME280;68974;47.754;-3.364;2023-04-25T00:37:29;101487.88;;;9.74;69.52
79527;BME280;68974;47.754;-3.364;2023-04-25T00:39:54;101487.88;;;9.74;69.24
79527;BME280;68974;47.754;-3.364;2023-04-25T00:42:21;101478.56;;;9.75;69.05
79527;BME280;68974;47.754;-3.364;2023-04-25T00:44:47;101476.91;;;9.74;69.42
79527;BME280;68974;47.754;-3.364;2023-04-25T00:47:13;101484.25;;;9.68;69.63
79527;BME280;68974;47.754;-3.364;2023-04-25T00:49:38;101479.81;;;9.62;69.28
79527;BME280;68974;47.754;-3.364;2023-04-25T00:52:04;101477.91;;;9.68;69.47
79527;BME280;68974;47.754;-3.364;2023-04-25T00:54:30;101476.78;;;9.64;69.29
79527;BME280;68974;47.754;-3.364;2023-04-25T00:56:56;101482.84;;;9.66;69.51
79527;BME280;68974;47.754;-3.364;2023-04-25T00:59:21;101482.56;;;9.62;69.66
79527;BME280;68974;47.754;-3.364;2023-04-25T01:01:47;101483.88;;;9.60;69.48
79527;BME280;68974;47.754;-3.364;2023-04-25T01:04:13;101480.00;;;9.55;70.11
79527;BME280;68974;47.754;-3.364;2023-04-25T01:06:38;101475.03;;;9.52;70.13
79527;BME280;68974;47.754;-3.364;2023-04-25T01:09:04;101474.56;;;9.61;69.68
79527;BME280;68974;47.754;-3.364;2023-04-25T01:11:30;101476.16;;;9.56;69.37
79527;BME280;68974;47.754;-3.364;2023-04-25T01:13:55;101482.16;;;9.53;69.94
79527;BME280;68974;47.754;-3.364;2023-04-25T01:16:21;101471.41;;;9.47;69.70
79527;BME280;68974;47.754;-3.364;2023-04-25T01:18:49;101476.94;;;9.52;70.29
79527;BME280;68974;47.754;-3.364;2023-04-25T01:21:15;101478.72;;;9.41;69.84
79527;BME280;68974;47.754;-3.364;2023-04-25T01:23:41;101467.75;;;9.41;70.15
79527;BME280;68974;47.754;-3.364;2023-04-25T01:26:11;101483.25;;;9.31;70.63
79527;BME280;68974;47.754;-3.364;2023-04-25T01:28:38;101478.47;;;9.21;70.69
79527;BME280;68974;47.754;-3.364;2023-04-25T01:31:06;101480.91;;;9.18;71.49
79527;BME280;68974;47.754;-3.364;2023-04-25T01:33:32;101478.72;;;9.20;71.19
79527;BME280;68974;47.754;-3.364;2023-04-25T01:35:58;101481.94;;;9.33;70.70
79527;BME280;68974;47.754;-3.364;2023-04-25T01:38:23;101475.28;;;9.29;70.85
79527;BME280;68974;47.754;-3.364;2023-04-25T01:40:50;101472.75;;;9.23;71.34
79527;BME280;68974;47.754;-3.364;2023-04-25T01:43:16;101470.91;;;9.28;71.09
79527;BME280;68974;47.754;-3.364;2023-04-25T01:45:42;101478.53;;;9.26;71.18
79527;BME280;68974;47.754;-3.364;2023-04-25T01:48:12;101470.41;;;9.14;71.48
79527;BME280;68974;47.754;-3.364;2023-04-25T01:50:39;101477.81;;;9.14;71.77
79527;BME280;68974;47.754;-3.364;2023-04-25T01:53:05;101484.63;;;9.11;72.02
79527;BME280;68974;47.754;-3.364;2023-04-25T01:55:30;101477.00;;;9.13;71.92
79527;BME280;68974;47.754;-3.364;2023-04-25T01:57:56;101484.50;;;9.01;71.71
79527;BME280;68974;47.754;-3.364;2023-04-25T02:00:21;101504.34;;;8.92;72.27
79527;BME280;68974;47.754;-3.364;2023-04-25T02:02:47;101490.00;;;8.85;73.04
79527;BME280;68974;47.754;-3.364;2023-04-25T02:05:13;101495.63;;;8.95;72.15
79527;BME280;68974;47.754;-3.364;2023-04-25T02:07:38;101493.47;;;8.97;72.01
79527;BME280;68974;47.754;-3.364;2023-04-25T02:10:04;101493.91;;;8.89;72.91
79527;BME280;68974;47.754;-3.364;2023-04-25T02:12:30;101491.09;;;8.84;72.24
79527;BME280;68974;47.754;-3.364;2023-04-25T02:14:56;101489.75;;;8.86;73.03
79527;BME280;68974;47.754;-3.364;2023-04-25T02:17:21;101486.78;;;8.88;72.33
79527;BME280;68974;47.754;-3.364;2023-04-25T02:19:47;101482.88;;;8.84;72.43
79527;BME280;68974;47.754;-3.364;2023-04-25T02:22:13;101489.06;;;8.96;71.85
79527;BME280;68974;47.754;-3.364;2023-04-25T02:24:38;101470.47;;;8.98;71.52
79527;BME280;68974;47.754;-3.364;2023-04-25T02:27:04;101472.63;;;8.96;71.50
79527;BME280;68974;47.754;-3.364;2023-04-25T02:29:29;101470.25;;;8.83;71.40
79527;BME280;68974;47.754;-3.364;2023-04-25T02:31:55;101466.44;;;8.84;71.92
79527;BME280;68974;47.754;-3.364;2023-04-25T02:34:21;101474.06;;;8.82;71.65
79527;BME280;68974;47.754;-3.364;2023-04-25T02:36:48;101470.69;;;8.75;71.85
79527;BME280;68974;47.754;-3.364;2023-04-25T02:39:14;101473.28;;;8.64;72.27
79527;BME280;68974;47.754;-3.364;2023-04-25T02:41:40;101468.13;;;8.68;72.54
79527;BME280;68974;47.754;-3.364;2023-04-25T02:44:05;101473.91;;;8.72;72.09
79527;BME280;68974;47.754;-3.364;2023-04-25T02:46:30;101472.38;;;8.59;72.30
79527;BME280;68974;47.754;-3.364;2023-04-25T02:48:56;101471.47;;;8.53;72.83
79527;BME280;68974;47.754;-3.364;2023-04-25T02:51:21;101475.84;;;8.54;72.59
79527;BME280;68974;47.754;-3.364;2023-04-25T02:53:46;101479.25;;;8.61;72.28
79527;BME280;68974;47.754;-3.364;2023-04-25T02:56:12;101468.13;;;8.51;71.73
79527;BME280;68974;47.754;-3.364;2023-04-25T02:58:37;101483.41;;;8.47;72.11
79527;BME280;68974;47.754;-3.364;2023-04-25T03:01:03;101480.25;;;8.39;73.31
79527;BME280;68974;47.754;-3.364;2023-04-25T03:03:28;101481.91;;;8.40;73.20
79527;BME280;68974;47.754;-3.364;2023-04-25T03:05:53;101484.97;;;8.43;72.27
79527;BME280;68974;47.754;-3.364;2023-04-25T03:08:19;101479.94;;;8.35;73.35
79527;BME280;68974;47.754;-3.364;2023-04-25T03:10:45;101481.72;;;8.46;72.28
79527;BME280;68974;47.754;-3.364;2023-04-25T03:13:10;101483.22;;;8.37;72.66
79527;BME280;68974;47.754;-3.364;2023-04-25T03:15:37;101490.88;;;8.35;72.89
79527;BME280;68974;47.754;-3.364;2023-04-25T03:18:02;101497.50;;;8.39;72.37
79527;BME280;68974;47.754;-3.364;2023-04-25T03:20:28;101497.84;;;8.43;71.91
79527;BME280;68974;47.754;-3.364;2023-04-25T03:22:54;101492.13;;;8.44;72.88
79527;BME280;68974;47.754;-3.364;2023-04-25T03:25:19;101488.88;;;8.47;72.67
79527;BME280;68974;47.754;-3.364;2023-04-25T03:27:45;101494.69;;;8.34;73.02
79527;BME280;68974;47.754;-3.364;2023-04-25T03:30:11;101503.47;;;8.53;72.05
79527;BME280;68974;47.754;-3.364;2023-04-25T03:32:36;101506.88;;;8.43;72.31
79527;BME280;68974;47.754;-3.364;2023-04-25T03:35:02;101493.84;;;8.50;71.87
79527;BME280;68974;47.754;-3.364;2023-04-25T03:37:27;101499.50;;;8.44;72.21
79527;BME280;68974;47.754;-3.364;2023-04-25T03:39:53;101505.50;;;8.29;73.19
79527;BME280;68974;47.754;-3.364;2023-04-25T03:42:18;101507.56;;;8.22;73.08
79527;BME280;68974;47.754;-3.364;2023-04-25T03:44:44;101509.22;;;8.23;73.67
79527;BME280;68974;47.754;-3.364;2023-04-25T03:47:10;101508.25;;;8.29;73.48
79527;BME280;68974;47.754;-3.364;2023-04-25T03:49:35;101519.69;;;8.26;73.13
79527;BME280;68974;47.754;-3.364;2023-04-25T03:52:02;101510.50;;;8.32;72.51
79527;BME280;68974;47.754;-3.364;2023-04-25T03:54:28;101512.28;;;8.38;72.33
79527;BME280;68974;47.754;-3.364;2023-04-25T03:56:53;101505.13;;;8.37;72.99
79527;BME280;68974;47.754;-3.364;2023-04-25T03:59:18;101491.94;;;8.34;73.07
79527;BME280;68974;47.754;-3.364;2023-04-25T04:01:44;101501.91;;;8.40;72.67
79527;BME280;68974;47.754;-3.364;2023-04-25T04:04:09;101502.66;;;8.52;72.54
79527;BME280;68974;47.754;-3.364;2023-04-25T04:06:35;101494.19;;;8.54;71.95
79527;BME280;68974;47.754;-3.364;2023-04-25T04:09:01;101494.66;;;8.51;72.00
79527;BME280;68974;47.754;-3.364;2023-04-25T04:11:27;101494.34;;;8.64;71.96
79527;BME280;68974;47.754;-3.364;2023-04-25T04:13:52;101490.88;;;8.68;71.60
79527;BME280;68974;47.754;-3.364;2023-04-25T04:16:17;101490.09;;;8.56;72.23
79527;BME280;68974;47.754;-3.364;2023-04-25T04:18:45;101488.13;;;8.52;72.23
79527;BME280;68974;47.754;-3.364;2023-04-25T04:21:10;101486.53;;;8.56;72.75
79527;BME280;68974;47.754;-3.364;2023-04-25T04:23:36;101487.22;;;8.46;72.89
79527;BME280;68974;47.754;-3.364;2023-04-25T04:26:01;101487.78;;;8.32;73.04
79527;BME280;68974;47.754;-3.364;2023-04-25T04:28:26;101490.13;;;8.40;72.42
79527;BME280;68974;47.754;-3.364;2023-04-25T04:30:53;101491.13;;;8.34;72.31
79527;BME280;68974;47.754;-3.364;2023-04-25T04:33:18;101495.84;;;8.38;72.91
79527;BME280;68974;47.754;-3.364;2023-04-25T04:35:45;101499.66;;;8.37;72.67
79527;BME280;68974;47.754;-3.364;2023-04-25T04:38:12;101500.81;;;8.41;73.08
79527;BME280;68974;47.754;-3.364;2023-04-25T04:40:37;101503.84;;;8.28;73.22
79527;BME280;68974;47.754;-3.364;2023-04-25T04:43:03;101506.38;;;8.30;72.68
79527;BME280;68974;47.754;-3.364;2023-04-25T04:45:28;101503.25;;;8.26;73.04
79527;BME280;68974;47.754;-3.364;2023-04-25T04:47:54;101505.63;;;8.34;73.19
79527;BME280;68974;47.754;-3.364;2023-04-25T04:50:20;101512.88;;;8.28;73.03
79527;BME280;68974;47.754;-3.364;2023-04-25T04:52:45;101515.78;;;8.22;72.50
79527;BME280;68974;47.754;-3.364;2023-04-25T04:55:11;101513.03;;;8.22;72.33
79527;BME280;68974;47.754;-3.364;2023-04-25T04:57:36;101515.03;;;8.10;72.28
79527;BME280;68974;47.754;-3.364;2023-04-25T05:00:04;101524.06;;;8.27;72.66
79527;BME280;68974;47.754;-3.364;2023-04-25T05:02:30;101525.47;;;8.13;72.54
79527;BME280;68974;47.754;-3.364;2023-04-25T05:04:55;101516.00;;;8.04;73.02
79527;BME280;68974;47.754;-3.364;2023-04-25T05:07:21;101518.84;;;8.09;73.40
79527;BME280;68974;47.754;-3.364;2023-04-25T05:09:46;101516.38;;;8.24;72.55
79527;BME280;68974;47.754;-3.364;2023-04-25T05:12:11;101524.19;;;8.32;73.09
79527;BME280;68974;47.754;-3.364;2023-04-25T05:14:37;101518.34;;;8.40;72.36
79527;BME280;68974;47.754;-3.364;2023-04-25T05:17:03;101523.91;;;8.45;72.21
79527;BME280;68974;47.754;-3.364;2023-04-25T05:19:33;101518.66;;;8.44;72.73
79527;BME280;68974;47.754;-3.364;2023-04-25T05:21:58;101523.41;;;8.48;71.79
79527;BME280;68974;47.754;-3.364;2023-04-25T05:24:24;101508.44;;;8.56;71.48
79527;BME280;68974;47.754;-3.364;2023-04-25T05:26:49;101503.16;;;8.49;71.91
79527;BME280;68974;47.754;-3.364;2023-04-25T05:29:15;101504.66;;;8.40;72.25
79527;BME280;68974;47.754;-3.364;2023-04-25T05:31:40;101504.66;;;8.40;72.92
79527;BME280;68974;47.754;-3.364;2023-04-25T05:34:05;101502.38;;;8.37;72.68
79527;BME280;68974;47.754;-3.364;2023-04-25T05:36:31;101503.84;;;8.28;72.97
79527;BME280;68974;47.754;-3.364;2023-04-25T05:38:57;101501.31;;;8.38;72.56
79527;BME280;68974;47.754;-3.364;2023-04-25T05:41:23;101507.31;;;8.35;72.89
79527;BME280;68974;47.754;-3.364;2023-04-25T05:43:48;101523.53;;;8.42;72.08
79527;BME280;68974;47.754;-3.364;2023-04-25T05:46:14;101532.91;;;8.46;72.44
79527;BME280;68974;47.754;-3.364;2023-04-25T05:48:42;101534.50;;;8.42;72.47
79527;BME280;68974;47.754;-3.364;2023-04-25T05:51:07;101531.38;;;8.50;71.72
79527;BME280;68974;47.754;-3.364;2023-04-25T05:53:33;101537.34;;;8.63;71.86
79527;BME280;68974;47.754;-3.364;2023-04-25T05:55:58;101535.69;;;8.62;71.20
79527;BME280;68974;47.754;-3.364;2023-04-25T05:58:24;101534.66;;;8.52;71.41
79527;BME280;68974;47.754;-3.364;2023-04-25T06:00:49;101540.00;;;8.58;71.41
79527;BME280;68974;47.754;-3.364;2023-04-25T06:03:15;101541.31;;;8.56;71.82
79527;BME280;68974;47.754;-3.364;2023-04-25T06:05:41;101542.88;;;8.52;71.46
79527;BME280;68974;47.754;-3.364;2023-04-25T06:08:08;101539.81;;;8.48;71.82
79527;BME280;68974;47.754;-3.364;2023-04-25T06:10:33;101540.97;;;8.52;71.63
79527;BME280;68974;47.754;-3.364;2023-04-25T06:12:59;101550.88;;;8.53;71.95
79527;BME280;68974;47.754;-3.364;2023-04-25T06:15:24;101539.81;;;8.65;71.78
79527;BME280;68974;47.754;-3.364;2023-04-25T06:17:49;101546.63;;;8.62;71.68
79527;BME280;68974;47.754;-3.364;2023-04-25T06:20:15;101540.00;;;8.58;71.90
79527;BME280;68974;47.754;-3.364;2023-04-25T06:22:40;101535.16;;;8.65;71.58
79527;BME280;68974;47.754;-3.364;2023-04-25T06:25:06;101536.59;;;8.68;72.12
79527;BME280;68974;47.754;-3.364;2023-04-25T06:27:33;101547.13;;;8.76;71.71
79527;BME280;68974;47.754;-3.364;2023-04-25T06:29:58;101554.59;;;8.81;71.24
79527;BME280;68974;47.754;-3.364;2023-04-25T06:32:24;101552.41;;;8.99;70.57
79527;BME280;68974;47.754;-3.364;2023-04-25T06:34:50;101559.63;;;9.05;70.82
79527;BME280;68974;47.754;-3.364;2023-04-25T06:37:15;101565.50;;;9.14;69.66
79527;BME280;68974;47.754;-3.364;2023-04-25T06:39:41;101569.31;;;9.30;69.81
79527;BME280;68974;47.754;-3.364;2023-04-25T06:42:06;101574.63;;;9.36;69.98
79527;BME280;68974;47.754;-3.364;2023-04-25T06:44:31;101581.09;;;9.47;69.22
79527;BME280;68974;47.754;-3.364;2023-04-25T06:46:57;101580.56;;;9.50;69.54
79527;BME280;68974;47.754;-3.364;2023-04-25T06:49:22;101587.19;;;9.54;68.95
79527;BME280;68974;47.754;-3.364;2023-04-25T06:51:48;101583.22;;;9.62;69.04
79527;BME280;68974;47.754;-3.364;2023-04-25T06:54:13;101579.31;;;9.57;69.30
79527;BME280;68974;47.754;-3.364;2023-04-25T06:56:38;101580.19;;;9.63;69.05
79527;BME280;68974;47.754;-3.364;2023-04-25T06:59:04;101571.53;;;9.71;71.03
79527;BME280;68974;47.754;-3.364;2023-04-25T07:01:29;101574.34;;;9.76;68.75
79527;BME280;68974;47.754;-3.364;2023-04-25T07:03:55;101558.19;;;9.80;68.53
79527;BME280;68974;47.754;-3.364;2023-04-25T07:06:20;101562.66;;;9.86;68.28
79527;BME280;68974;47.754;-3.364;2023-04-25T07:08:46;101560.41;;;9.83;68.58
79527;BME280;68974;47.754;-3.364;2023-04-25T07:11:11;101563.09;;;9.78;68.51
79527;BME280;68974;47.754;-3.364;2023-04-25T07:13:36;101563.16;;;9.83;68.43
79527;BME280;68974;47.754;-3.364;2023-04-25T07:16:02;101554.38;;;9.81;68.39
79527;BME280;68974;47.754;-3.364;2023-04-25T07:18:28;101556.34;;;9.85;68.34
79527;BME280;68974;47.754;-3.364;2023-04-25T07:20:53;101559.34;;;9.84;68.69
79527;BME280;68974;47.754;-3.364;2023-04-25T07:23:19;101563.09;;;9.99;68.29
79527;BME280;68974;47.754;-3.364;2023-04-25T07:25:44;101563.09;;;10.21;68.28
79527;BME280;68974;47.754;-3.364;2023-04-25T07:28:10;101559.41;;;10.37;67.83
79527;BME280;68974;47.754;-3.364;2023-04-25T07:30:35;101563.66;;;10.50;68.01
79527;BME280;68974;47.754;-3.364;2023-04-25T07:33:00;101568.56;;;10.80;71.16
79527;BME280;68974;47.754;-3.364;2023-04-25T07:35:26;101562.34;;;10.95;68.31
79527;BME280;68974;47.754;-3.364;2023-04-25T07:37:51;101566.56;;;11.02;65.80
79527;BME280;68974;47.754;-3.364;2023-04-25T07:40:17;101567.16;;;11.14;66.35
79527;BME280;68974;47.754;-3.364;2023-04-25T07:42:42;101565.03;;;11.21;65.38
79527;BME280;68974;47.754;-3.364;2023-04-25T07:45:08;101566.13;;;11.20;64.76
79527;BME280;68974;47.754;-3.364;2023-04-25T07:47:34;101574.91;;;11.17;65.06
79527;BME280;68974;47.754;-3.364;2023-04-25T07:50:00;101586.50;;;11.24;64.44
79527;BME280;68974;47.754;-3.364;2023-04-25T07:52:25;101584.16;;;11.06;65.05
79527;BME280;68974;47.754;-3.364;2023-04-25T07:54:51;101586.38;;;11.04;65.05
79527;BME280;68974;47.754;-3.364;2023-04-25T07:57:17;101583.84;;;10.98;65.53
79527;BME280;68974;47.754;-3.364;2023-04-25T07:59:43;101582.66;;;11.25;64.93
79527;BME280;68974;47.754;-3.364;2023-04-25T08:02:09;101582.44;;;11.84;63.44
79527;BME280;68974;47.754;-3.364;2023-04-25T08:04:34;101584.69;;;11.92;62.41
79527;BME280;68974;47.754;-3.364;2023-04-25T08:06:59;101576.22;;;12.19;61.48
79527;BME280;68974;47.754;-3.364;2023-04-25T08:09:25;101572.72;;;13.15;59.28
79527;BME280;68974;47.754;-3.364;2023-04-25T08:11:50;101557.19;;;14.13;55.65
79527;BME280;68974;47.754;-3.364;2023-04-25T08:14:16;101554.78;;;14.02;55.55
79527;BME280;68974;47.754;-3.364;2023-04-25T08:16:41;101550.63;;;14.53;54.37
79527;BME280;68974;47.754;-3.364;2023-04-25T08:19:07;101557.28;;;13.34;57.44
79527;BME280;68974;47.754;-3.364;2023-04-25T08:21:32;101560.06;;;13.24;57.55
79527;BME280;68974;47.754;-3.364;2023-04-25T08:23:58;101559.69;;;13.51;56.38
79527;BME280;68974;47.754;-3.364;2023-04-25T08:26:24;101561.44;;;13.96;55.28
79527;BME280;68974;47.754;-3.364;2023-04-25T08:28:50;101563.59;;;14.04;55.14
79527;BME280;68974;47.754;-3.364;2023-04-25T08:31:15;101568.84;;;14.10;55.40
79527;BME280;68974;47.754;-3.364;2023-04-25T08:33:41;101564.25;;;14.35;53.28
79527;BME280;68974;47.754;-3.364;2023-04-25T08:36:06;101564.13;;;14.60;52.64
79527;BME280;68974;47.754;-3.364;2023-04-25T08:38:32;101568.88;;;14.54;52.61
79527;BME280;68974;47.754;-3.364;2023-04-25T08:41:00;101557.66;;;14.74;52.88
79527;BME280;68974;47.754;-3.364;2023-04-25T08:43:28;101568.69;;;14.41;53.30
79527;BME280;68974;47.754;-3.364;2023-04-25T08:45:58;101560.63;;;14.44;52.80
79527;BME280;68974;47.754;-3.364;2023-04-25T08:48:27;101553.47;;;14.38;53.40
79527;BME280;68974;47.754;-3.364;2023-04-25T08:50:54;101549.47;;;14.59;53.35
79527;BME280;68974;47.754;-3.364;2023-04-25T08:53:25;101545.69;;;14.84;52.44
79527;BME280;68974;47.754;-3.364;2023-04-25T08:55:51;101547.03;;;15.15;51.45
79527;BME280;68974;47.754;-3.364;2023-04-25T08:58:18;101544.56;;;15.14;51.20
79527;BME280;68974;47.754;-3.364;2023-04-25T09:00:46;101545.88;;;14.93;51.64
79527;BME280;68974;47.754;-3.364;2023-04-25T09:03:11;101543.59;;;13.78;55.31
79527;BME280;68974;47.754;-3.364;2023-04-25T09:05:37;101553.50;;;13.79;56.06
79527;BME280;68974;47.754;-3.364;2023-04-25T09:08:02;101547.56;;;13.41;56.53
79527;BME280;68974;47.754;-3.364;2023-04-25T09:10:28;101558.97;;;12.94;57.84
79527;BME280;68974;47.754;-3.364;2023-04-25T09:13:08;101566.66;;;12.87;58.24
79527;BME280;68974;47.754;-3.364;2023-04-25T09:15:52;101558.38;;;12.52;59.94
79527;BME280;68974;47.754;-3.364;2023-04-25T09:18:28;101563.34;;;12.50;59.45
79527;BME280;68974;47.754;-3.364;2023-04-25T09:20:56;101554.81;;;12.67;58.79
79527;BME280;68974;47.754;-3.364;2023-04-25T09:23:22;101552.63;;;12.79;58.51
79527;BME280;68974;47.754;-3.364;2023-04-25T09:25:51;101558.91;;;13.10;58.32
79527;BME280;68974;47.754;-3.364;2023-04-25T09:28:24;101558.94;;;13.20;56.90
79527;BME280;68974;47.754;-3.364;2023-04-25T09:30:56;101557.81;;;12.95;57.63
79527;BME280;68974;47.754;-3.364;2023-04-25T09:33:32;101562.78;;;13.09;57.88
79527;BME280;68974;47.754;-3.364;2023-04-25T09:36:07;101559.47;;;13.27;56.23
79527;BME280;68974;47.754;-3.364;2023-04-25T09:38:40;101571.56;;;13.51;56.09
79527;BME280;68974;47.754;-3.364;2023-04-25T09:41:07;101561.81;;;13.69;55.99
79527;BME280;68974;47.754;-3.364;2023-04-25T09:43:33;101565.34;;;13.84;53.96
79527;BME280;68974;47.754;-3.364;2023-04-25T09:45:58;101561.28;;;14.26;52.96
79527;BME280;68974;47.754;-3.364;2023-04-25T09:48:27;101562.97;;;14.66;50.66
79527;BME280;68974;47.754;-3.364;2023-04-25T09:53:31;101565.38;;;13.79;52.63
79527;BME280;68974;47.754;-3.364;2023-04-25T09:55:59;101565.81;;;13.37;53.99
79527;BME280;68974;47.754;-3.364;2023-04-25T09:58:28;101548.09;;;14.08;52.69
79527;BME280;68974;47.754;-3.364;2023-04-25T10:00:59;101551.50;;;14.44;51.16
79527;BME280;68974;47.754;-3.364;2023-04-25T10:03:25;101534.78;;;14.20;51.14
79527;BME280;68974;47.754;-3.364;2023-04-25T10:05:52;101530.44;;;14.53;49.71
79527;BME280;68974;47.754;-3.364;2023-04-25T10:08:19;101535.72;;;14.49;49.74
79527;BME280;68974;47.754;-3.364;2023-04-25T10:10:46;101540.06;;;14.60;50.72
79527;BME280;68974;47.754;-3.364;2023-04-25T10:13:12;101547.94;;;14.43;49.96
79527;BME280;68974;47.754;-3.364;2023-04-25T10:15:40;101552.94;;;14.41;50.33
79527;BME280;68974;47.754;-3.364;2023-04-25T10:18:06;101564.66;;;14.62;49.82
79527;BME280;68974;47.754;-3.364;2023-04-25T10:20:32;101547.97;;;14.38;50.95
79527;BME280;68974;47.754;-3.364;2023-04-25T10:23:06;101547.06;;;14.48;49.68
79527;BME280;68974;47.754;-3.364;2023-04-25T10:25:34;101550.16;;;15.09;48.57
79527;BME280;68974;47.754;-3.364;2023-04-25T10:28:00;101550.34;;;14.89;48.83
79527;BME280;68974;47.754;-3.364;2023-04-25T10:30:26;101564.41;;;14.92;48.98
79527;BME280;68974;47.754;-3.364;2023-04-25T10:32:55;101574.63;;;14.92;48.09
79527;BME280;68974;47.754;-3.364;2023-04-25T10:35:38;101571.19;;;14.32;50.11
79527;BME280;68974;47.754;-3.364;2023-04-25T10:38:08;101587.09;;;14.55;49.15
79527;BME280;68974;47.754;-3.364;2023-04-25T10:40:34;101588.44;;;14.09;50.18
79527;BME280;68974;47.754;-3.364;2023-04-25T10:46:02;101608.22;;;13.72;50.62
79527;BME280;68974;47.754;-3.364;2023-04-25T10:48:29;101612.75;;;13.12;56.49
79527;BME280;68974;47.754;-3.364;2023-04-25T10:51:11;101624.56;;;12.97;57.73
79527;BME280;68974;47.754;-3.364;2023-04-25T10:53:37;101632.00;;;12.72;59.01
79527;BME280;68974;47.754;-3.364;2023-04-25T10:56:19;101622.66;;;12.88;59.46
79527;BME280;68974;47.754;-3.364;2023-04-25T10:58:45;101633.41;;;13.05;59.00
79527;BME280;68974;47.754;-3.364;2023-04-25T11:01:15;101619.63;;;13.20;58.27
79527;BME280;68974;47.754;-3.364;2023-04-25T11:03:44;101605.81;;;13.25;58.04
79527;BME280;68974;47.754;-3.364;2023-04-25T11:06:23;101608.06;;;13.13;59.38
79527;BME280;68974;47.754;-3.364;2023-04-25T11:08:53;101605.69;;;13.80;56.81
79527;BME280;68974;47.754;-3.364;2023-04-25T11:11:18;101599.03;;;13.92;55.44
79527;BME280;68974;47.754;-3.364;2023-04-25T11:13:48;101597.19;;;14.36;54.17
79527;BME280;68974;47.754;-3.364;2023-04-25T11:16:13;101590.91;;;14.64;53.26
79527;BME280;68974;47.754;-3.364;2023-04-25T11:18:43;101581.63;;;14.50;53.25
79527;BME280;68974;47.754;-3.364;2023-04-25T11:21:09;101587.88;;;14.17;54.00
79527;BME280;68974;47.754;-3.364;2023-04-25T11:23:35;101601.81;;;13.86;54.83
79527;BME280;68974;47.754;-3.364;2023-04-25T11:26:02;101592.50;;;13.67;56.07
79527;BME280;68974;47.754;-3.364;2023-04-25T11:28:28;101600.28;;;13.40;57.08
79527;BME280;68974;47.754;-3.364;2023-04-25T11:30:53;101590.41;;;13.29;58.20
79527;BME280;68974;47.754;-3.364;2023-04-25T11:33:23;101582.63;;;13.46;57.35
79527;BME280;68974;47.754;-3.364;2023-04-25T11:35:49;101577.59;;;13.63;56.47
79527;BME280;68974;47.754;-3.364;2023-04-25T11:38:14;101570.78;;;13.30;56.92
79527;BME280;68974;47.754;-3.364;2023-04-25T11:40:40;101569.44;;;13.13;57.34
79527;BME280;68974;47.754;-3.364;2023-04-25T11:43:06;101568.84;;;13.06;57.64
79527;BME280;68974;47.754;-3.364;2023-04-25T11:45:32;101575.78;;;13.23;55.78
79527;BME280;68974;47.754;-3.364;2023-04-25T11:47:57;101570.47;;;13.47;54.41
79527;BME280;68974;47.754;-3.364;2023-04-25T11:50:23;101571.41;;;13.92;53.81
79527;BME280;68974;47.754;-3.364;2023-04-25T11:52:48;101568.44;;;14.27;52.70
79527;BME280;68974;47.754;-3.364;2023-04-25T11:55:14;101558.38;;;14.51;51.32
79527;BME280;68974;47.754;-3.364;2023-04-25T11:57:41;101553.66;;;14.52;52.27
79527;BME280;68974;47.754;-3.364;2023-04-25T12:00:11;101571.91;;;14.87;50.84
79527;BME280;68974;47.754;-3.364;2023-04-25T12:02:45;101555.88;;;14.89;50.02
79527;BME280;68974;47.754;-3.364;2023-04-25T12:05:12;101563.63;;;14.87;50.77
79527;BME280;68974;47.754;-3.364;2023-04-25T12:07:38;101560.53;;;14.93;50.94
79527;BME280;68974;47.754;-3.364;2023-04-25T12:10:05;101561.34;;;14.94;50.81
79527;BME280;68974;47.754;-3.364;2023-04-25T12:12:35;101566.38;;;15.44;49.79
79527;BME280;68974;47.754;-3.364;2023-04-25T12:15:25;101553.97;;;15.13;50.53
79527;BME280;68974;47.754;-3.364;2023-04-25T12:17:52;101550.34;;;15.17;50.53
79527;BME280;68974;47.754;-3.364;2023-04-25T12:20:24;101547.56;;;14.89;51.51
79527;BME280;68974;47.754;-3.364;2023-04-25T12:22:52;101550.56;;;14.92;51.71
79527;BME280;68974;47.754;-3.364;2023-04-25T12:25:40;101539.63;;;14.43;53.22
79527;BME280;68974;47.754;-3.364;2023-04-25T12:28:16;101547.16;;;14.27;52.90
79527;BME280;68974;47.754;-3.364;2023-04-25T12:31:04;101545.22;;;13.79;54.29
79527;BME280;68974;47.754;-3.364;2023-04-25T12:33:31;101545.78;;;13.76;54.34
79527;BME280;68974;47.754;-3.364;2023-04-25T12:35:58;101544.78;;;13.57;55.20
79527;BME280;68974;47.754;-3.364;2023-04-25T12:38:27;101552.19;;;13.66;55.69
79527;BME280;68974;47.754;-3.364;2023-04-25T12:40:55;101545.25;;;13.69;54.84
79527;BME280;68974;47.754;-3.364;2023-04-25T12:43:20;101542.53;;;13.64;55.63
79527;BME280;68974;47.754;-3.364;2023-04-25T12:45:53;101545.09;;;13.40;56.93
79527;BME280;68974;47.754;-3.364;2023-04-25T12:48:20;101541.78;;;13.48;56.34